Time;durP1;ratioP1;P1;durP2;ratioP2;P2;SDS_P1;SDS_P2;PMS_P1;PMS_P2;Temp;Humidity;BMP_temperature;BMP_pressure;BME280_temperature;BME280_humidity;BME280_pressure;Samples;Min_cycle;Max_cycle;Signal;HPM_P1;HPM_P2
2022/04/09 00:00:51;;;;;;;2.08;0.70;;;23.10;42.90;;;;;;5006537;28;20041;-42
2022/04/09 00:03:16;;;;;;;2.05;0.70;;;23.10;42.90;;;;;;5025279;28;20033;-43
2022/04/09 00:05:42;;;;;;;1.65;0.55;;;23.10;42.90;;;;;;5026121;28;20040;-42
2022/04/09 00:08:08;;;;;;;1.70;0.70;;;23.10;42.80;;;;;;5025932;28;20600;-43
2022/04/09 00:10:34;;;;;;;1.92;0.73;;;23.10;42.80;;;;;;5025869;28;20037;-43
2022/04/09 00:12:59;;;;;;;2.25;0.90;;;23.10;42.90;;;;;;5025575;28;20113;-42
2022/04/09 00:15:25;;;;;;;2.00;0.70;;;23.00;42.80;;;;;;5025050;28;20041;-42
2022/04/09 00:17:51;;;;;;;2.03;0.60;;;23.10;42.80;;;;;;5025014;28;20028;-43
2022/04/09 00:20:18;;;;;;;2.00;0.88;;;23.00;42.70;;;;;;5025410;28;20719;-42
2022/04/09 00:22:44;;;;;;;2.20;0.77;;;23.00;42.70;;;;;;5023360;28;20059;-43
2022/04/09 00:25:13;;;;;;;1.67;0.70;;;23.00;42.70;;;;;;5025264;28;20053;-43
2022/04/09 00:27:39;;;;;;;1.45;0.60;;;23.00;42.60;;;;;;5025209;28;20053;-42
2022/04/09 00:30:06;;;;;;;1.27;0.70;;;23.00;42.60;;;;;;5024640;28;20030;-42
2022/04/09 00:32:32;;;;;;;1.25;0.50;;;23.00;42.60;;;;;;5023527;28;20643;-42
2022/04/09 00:34:58;;;;;;;1.83;0.85;;;23.00;42.60;;;;;;5025160;28;20080;-43
2022/04/09 00:37:24;;;;;;;2.22;0.80;;;23.00;42.60;;;;;;5024063;28;20668;-43
2022/04/09 00:39:50;;;;;;;1.35;0.70;;;23.00;42.60;;;;;;5025272;28;20095;-47
2022/04/09 00:42:18;;;;;;;1.65;0.68;;;23.00;42.60;;;;;;5024603;28;20065;-42
2022/04/09 00:44:44;;;;;;;1.85;0.60;;;23.00;42.50;;;;;;5024765;28;20678;-42
2022/04/09 00:47:10;;;;;;;2.05;0.70;;;23.00;42.50;;;;;;5024598;28;20072;-43
2022/04/09 00:49:37;;;;;;;1.00;0.70;;;23.00;42.50;;;;;;5024537;28;20052;-42
2022/04/09 00:52:06;;;;;;;2.08;0.85;;;23.00;42.50;;;;;;5024374;28;20057;-42
2022/04/09 00:54:34;;;;;;;1.00;0.50;;;23.00;42.50;;;;;;5023104;28;20116;-42
2022/04/09 00:57:07;;;;;;;2.10;0.80;;;23.00;42.50;;;;;;5024385;28;20030;-42
2022/04/09 00:59:38;;;;;;;1.13;0.50;;;23.00;42.50;;;;;;5023609;28;20095;-43
2022/04/09 01:02:04;;;;;;;1.08;0.45;;;23.00;42.50;;;;;;5024459;28;20025;-43
2022/04/09 01:04:34;;;;;;;1.83;0.60;;;23.00;42.50;;;;;;5024650;28;20022;-43
2022/04/09 01:07:01;;;;;;;2.28;0.73;;;23.00;42.50;;;;;;5024508;28;20033;-42
2022/04/09 01:09:27;;;;;;;1.13;0.55;;;23.00;42.50;;;;;;5022204;28;20037;-42
2022/04/09 01:11:55;;;;;;;1.48;0.57;;;23.00;42.40;;;;;;5023499;28;20017;-43
2022/04/09 01:14:21;;;;;;;1.73;0.77;;;22.90;42.40;;;;;;5024350;28;20088;-43
2022/04/09 01:16:47;;;;;;;1.00;0.50;;;22.90;42.30;;;;;;5023356;28;20748;-42
2022/04/09 01:19:12;;;;;;;2.97;0.73;;;22.90;42.40;;;;;;5023579;28;20065;-43
2022/04/09 01:21:39;;;;;;;1.10;0.55;;;22.90;42.30;;;;;;5023466;28;20025;-42
2022/04/09 01:24:05;;;;;;;1.45;0.50;;;22.90;42.30;;;;;;5024180;28;20029;-42
2022/04/09 01:26:31;;;;;;;1.92;0.70;;;22.90;42.30;;;;;;5024686;28;20591;-43
2022/04/09 01:28:58;;;;;;;1.20;0.60;;;22.90;42.30;;;;;;5024631;28;20385;-43
2022/04/09 01:31:24;;;;;;;1.38;0.50;;;22.90;42.30;;;;;;5023689;28;20041;-42
2022/04/09 01:33:50;;;;;;;1.08;0.40;;;22.90;42.30;;;;;;5023993;28;20116;-42
2022/04/09 01:36:15;;;;;;;1.65;0.52;;;22.90;42.30;;;;;;5024548;28;20021;-43
2022/04/09 01:38:41;;;;;;;0.55;0.32;;;22.90;42.30;;;;;;5024726;28;20056;-43
2022/04/09 01:41:07;;;;;;;1.75;0.60;;;22.90;42.30;;;;;;5023251;28;20041;-42
2022/04/09 01:43:34;;;;;;;1.55;0.60;;;22.90;42.30;;;;;;5023923;28;20036;-43
2022/04/09 01:46:00;;;;;;;1.15;0.60;;;22.90;42.20;;;;;;5024321;28;20045;-42
2022/04/09 01:48:26;;;;;;;1.20;0.60;;;22.90;42.30;;;;;;5024684;28;20049;-43
2022/04/09 01:50:52;;;;;;;1.13;0.45;;;22.80;42.10;;;;;;5024340;28;20096;-43
2022/04/09 01:53:18;;;;;;;1.20;0.52;;;22.90;42.20;;;;;;5023687;28;20021;-43
2022/04/09 01:55:44;;;;;;;1.50;0.77;;;22.80;42.10;;;;;;5024473;28;20033;-42
2022/04/09 01:58:10;;;;;;;1.33;0.50;;;22.90;42.80;;;;;;5024261;28;20026;-42
2022/04/09 02:00:36;;;;;;;1.10;0.47;;;22.80;42.00;;;;;;5023101;28;20057;-42
2022/04/09 02:03:02;;;;;;;2.25;0.70;;;22.90;42.10;;;;;;5023690;28;20273;-42
2022/04/09 02:05:28;;;;;;;1.50;0.50;;;22.80;42.10;;;;;;5024387;28;20025;-42
2022/04/09 02:07:53;;;;;;;1.35;0.68;;;22.80;42.00;;;;;;5023033;28;20028;-43
2022/04/09 02:10:20;;;;;;;1.15;0.50;;;22.80;42.00;;;;;;5024177;28;20025;-43
2022/04/09 02:12:47;;;;;;;1.67;0.60;;;22.80;42.00;;;;;;5023044;28;20121;-42
2022/04/09 02:15:14;;;;;;;1.52;0.60;;;22.80;41.90;;;;;;5023291;28;20068;-43
2022/04/09 02:17:42;;;;;;;1.65;0.60;;;22.80;41.90;;;;;;5024091;28;20526;-43
2022/04/09 02:20:11;;;;;;;1.13;0.60;;;22.80;41.90;;;;;;5023149;28;20026;-43
2022/04/09 02:22:39;;;;;;;0.90;0.40;;;22.80;42.00;;;;;;5023558;28;20052;-42
2022/04/09 02:25:06;;;;;;;0.77;0.40;;;22.80;42.00;;;;;;5023051;28;20055;-43
2022/04/09 02:27:32;;;;;;;1.40;0.70;;;22.80;42.00;;;;;;5024136;28;20041;-43
2022/04/09 02:29:58;;;;;;;1.75;0.60;;;22.80;41.90;;;;;;5023748;28;20029;-43
2022/04/09 02:32:24;;;;;;;1.40;0.47;;;22.80;42.00;;;;;;5023575;28;20038;-42
2022/04/09 02:34:53;;;;;;;1.23;0.55;;;22.80;42.00;;;;;;5023747;28;20065;-43
2022/04/09 02:37:20;;;;;;;1.02;0.40;;;22.70;41.90;;;;;;5023513;28;20029;-43
2022/04/09 02:39:46;;;;;;;1.13;0.50;;;22.80;42.00;;;;;;5024024;28;20018;-42
2022/04/09 02:42:12;;;;;;;0.95;0.40;;;22.70;41.90;;;;;;5023766;28;20618;-42
2022/04/09 02:44:39;;;;;;;0.80;0.30;;;22.70;41.80;;;;;;5024294;28;20623;-42
2022/04/09 02:47:05;;;;;;;0.95;0.40;;;22.80;41.90;;;;;;5027278;28;20033;-43
2022/04/09 02:49:31;;;;;;;0.70;0.30;;;22.70;41.90;;;;;;5027427;28;20030;-43
2022/04/09 02:51:56;;;;;;;0.88;0.32;;;22.80;41.80;;;;;;5026879;28;20033;-43
2022/04/09 02:54:22;;;;;;;0.70;0.47;;;22.70;41.80;;;;;;5026273;28;20021;-43
2022/04/09 02:56:48;;;;;;;1.05;0.40;;;22.70;41.80;;;;;;5026780;28;20032;-43
2022/04/09 02:59:14;;;;;;;0.85;0.40;;;22.70;41.80;;;;;;5026422;28;20401;-43
2022/04/09 03:01:41;;;;;;;1.00;0.32;;;22.70;41.70;;;;;;5026608;28;20120;-42
2022/04/09 03:04:07;;;;;;;0.93;0.40;;;22.70;41.70;;;;;;5026623;28;20456;-42
2022/04/09 03:06:33;;;;;;;1.02;0.50;;;22.70;41.70;;;;;;5026915;28;20041;-43
2022/04/09 03:08:59;;;;;;;0.55;0.30;;;22.70;41.70;;;;;;5026146;28;20042;-42
2022/04/09 03:11:25;;;;;;;1.23;0.50;;;22.70;41.70;;;;;;5025888;28;20025;-41
2022/04/09 03:13:51;;;;;;;1.05;0.52;;;22.70;41.70;;;;;;5024836;28;20033;-43
2022/04/09 03:16:17;;;;;;;0.82;0.43;;;22.70;41.70;;;;;;5026653;28;20713;-43
2022/04/09 03:18:42;;;;;;;1.55;0.55;;;22.70;41.70;;;;;;5026811;28;20026;-43
2022/04/09 03:21:08;;;;;;;0.80;0.30;;;22.70;41.70;;;;;;5025852;28;20544;-42
2022/04/09 03:23:34;;;;;;;1.02;0.40;;;22.70;41.70;;;;;;5026487;28;20037;-42
2022/04/09 03:25:59;;;;;;;1.20;0.40;;;22.70;41.70;;;;;;5027017;28;20069;-42
2022/04/09 03:28:26;;;;;;;0.70;0.38;;;22.70;41.60;;;;;;5025566;28;20064;-43
2022/04/09 03:30:52;;;;;;;0.95;0.40;;;22.70;41.70;;;;;;5026380;28;20520;-42
2022/04/09 03:33:18;;;;;;;0.77;0.30;;;22.70;41.60;;;;;;5025076;28;20030;-43
2022/04/09 03:35:44;;;;;;;0.93;0.40;;;22.70;41.60;;;;;;5026669;28;20033;-42
2022/04/09 03:38:11;;;;;;;0.75;0.38;;;22.70;41.60;;;;;;5026682;28;20033;-43
2022/04/09 03:40:38;;;;;;;1.23;0.50;;;22.70;41.60;;;;;;5026585;28;20030;-43
2022/04/09 03:43:04;;;;;;;0.65;0.30;;;22.70;41.60;;;;;;5025956;28;20057;-42
2022/04/09 03:45:29;;;;;;;0.57;0.30;;;22.60;41.60;;;;;;5026182;28;20033;-44
2022/04/09 03:47:55;;;;;;;1.63;0.50;;;22.60;41.60;;;;;;5025290;28;20053;-42
2022/04/09 03:50:21;;;;;;;1.17;0.60;;;22.70;41.60;;;;;;5026638;28;20029;-42
2022/04/09 03:52:47;;;;;;;0.70;0.30;;;22.60;41.60;;;;;;5024774;28;20033;-42
2022/04/09 03:55:13;;;;;;;0.85;0.30;;;22.60;41.50;;;;;;5026366;28;20022;-43
2022/04/09 03:57:39;;;;;;;1.02;0.30;;;22.60;41.60;;;;;;5025005;28;20031;-42
2022/04/09 04:00:05;;;;;;;1.00;0.40;;;22.70;41.70;;;;;;5008406;28;20052;-42
2022/04/09 04:02:31;;;;;;;1.02;0.52;;;22.60;41.60;;;;;;5025521;28;20037;-42
2022/04/09 04:05:02;;;;;;;1.02;0.40;;;22.60;41.40;;;;;;5026168;28;20776;-42
2022/04/09 04:07:29;;;;;;;0.80;0.28;;;22.60;41.10;;;;;;5025324;28;20034;-42
2022/04/09 04:09:54;;;;;;;0.57;0.30;;;22.60;41.30;;;;;;5024294;28;20041;-43
2022/04/09 04:12:20;;;;;;;0.85;0.40;;;22.60;41.30;;;;;;5024147;28;20095;-42
2022/04/09 04:14:46;;;;;;;1.23;0.43;;;22.60;41.30;;;;;;5025191;28;20053;-42
2022/04/09 04:17:12;;;;;;;0.90;0.50;;;22.60;41.30;;;;;;5024861;28;20041;-42
2022/04/09 04:19:39;;;;;;;1.23;0.50;;;22.60;41.10;;;;;;5025158;28;20022;-43
2022/04/09 04:22:05;;;;;;;1.05;0.30;;;22.60;41.20;;;;;;5023234;28;20029;-43
2022/04/09 04:24:31;;;;;;;0.82;0.40;;;22.60;41.20;;;;;;5025210;28;20501;-42
2022/04/09 04:26:57;;;;;;;0.75;0.20;;;22.60;41.20;;;;;;5025758;28;20034;-44
2022/04/09 04:29:22;;;;;;;0.80;0.30;;;22.60;41.20;;;;;;5025320;28;20388;-43
2022/04/09 04:31:48;;;;;;;1.15;0.40;;;22.60;41.20;;;;;;5024962;28;20610;-43
2022/04/09 04:34:14;;;;;;;0.80;0.40;;;22.60;41.30;;;;;;5024287;28;20474;-42
2022/04/09 04:36:39;;;;;;;1.30;0.57;;;22.60;41.20;;;;;;5025654;28;20017;-42
2022/04/09 04:39:05;;;;;;;0.90;0.40;;;22.60;41.20;;;;;;5025210;28;20471;-42
2022/04/09 04:41:31;;;;;;;0.90;0.40;;;22.60;41.20;;;;;;5024471;28;20030;-42
2022/04/09 04:43:56;;;;;;;1.20;0.45;;;22.60;41.30;;;;;;5025196;28;20382;-42
2022/04/09 04:46:22;;;;;;;0.85;0.40;;;22.60;41.30;;;;;;5025123;28;20091;-43
2022/04/09 04:48:48;;;;;;;0.55;0.20;;;22.60;41.30;;;;;;5025133;28;20036;-42
2022/04/09 04:51:14;;;;;;;1.25;0.32;;;22.60;41.20;;;;;;5025103;28;20048;-45
2022/04/09 04:53:39;;;;;;;0.70;0.30;;;22.60;41.20;;;;;;5024799;28;20022;-42
2022/04/09 04:56:05;;;;;;;0.85;0.30;;;22.60;41.30;;;;;;5025123;28;20087;-42
2022/04/09 04:58:31;;;;;;;0.88;0.32;;;22.60;41.20;;;;;;5025118;28;20665;-43
2022/04/09 05:00:57;;;;;;;0.90;0.40;;;22.60;41.20;;;;;;5022014;28;20037;-43
2022/04/09 05:03:22;;;;;;;0.45;0.25;;;22.60;41.90;;;;;;5002798;28;20049;-42
2022/04/09 05:05:48;;;;;;;0.50;0.30;;;22.50;41.20;;;;;;5003894;28;20371;-42
2022/04/09 05:08:14;;;;;;;0.55;0.25;;;22.50;41.20;;;;;;5003667;28;20033;-42
2022/04/09 05:10:39;;;;;;;1.42;0.38;;;22.60;41.20;;;;;;5003598;28;20087;-42
2022/04/09 05:13:05;;;;;;;0.45;0.20;;;22.50;41.20;;;;;;5013597;28;20064;-49
2022/04/09 05:15:32;;;;;;;0.77;0.30;;;22.60;41.20;;;;;;5023728;28;20021;-42
2022/04/09 05:18:00;;;;;;;0.88;0.35;;;22.50;41.30;;;;;;5021957;28;20672;-43
2022/04/09 05:20:26;;;;;;;1.10;0.20;;;22.50;41.30;;;;;;5022351;28;20104;-46
2022/04/09 05:22:51;;;;;;;1.40;0.68;;;22.50;42.00;;;;;;5022767;28;20155;-43
2022/04/09 05:25:21;;;;;;;0.77;0.30;;;22.50;41.30;;;;;;5022811;28;20081;-43
2022/04/09 05:27:49;;;;;;;0.90;0.32;;;22.60;41.20;;;;;;5022599;28;20377;-44
2022/04/09 05:30:15;;;;;;;0.52;0.20;;;22.60;41.10;;;;;;5023735;28;20036;-43
2022/04/09 05:32:41;;;;;;;0.68;0.30;;;22.60;41.10;;;;;;5020968;28;20030;-43
2022/04/09 05:35:08;;;;;;;0.98;0.38;;;22.60;41.10;;;;;;5021291;28;20430;-43
2022/04/09 05:37:34;;;;;;;1.48;0.50;;;22.60;41.40;;;;;;5023361;28;20055;-43
2022/04/09 05:39:59;;;;;;;2.42;0.70;;;22.60;41.70;;;;;;5024037;28;20172;-43
2022/04/09 05:42:26;;;;;;;4.65;1.08;;;22.60;42.00;;;;;;5019734;28;20132;-43
2022/04/09 05:44:53;;;;;;;2.63;0.68;;;22.60;42.70;;;;;;5005599;28;20068;-44
2022/04/09 05:47:19;;;;;;;1.75;0.70;;;22.70;42.90;;;;;;5004082;28;20038;-43
2022/04/09 05:49:44;;;;;;;3.72;1.05;;;22.70;43.40;;;;;;5020280;28;20476;-43
2022/04/09 05:52:10;;;;;;;2.13;0.65;;;22.80;43.40;;;;;;5021943;28;20025;-43
2022/04/09 05:54:36;;;;;;;3.45;0.82;;;22.70;43.20;;;;;;5019410;28;20044;-43
2022/04/09 05:57:03;;;;;;;5.45;1.05;;;22.80;43.20;;;;;;5023040;28;20040;-42
2022/04/09 05:59:30;;;;;;;2.72;0.88;;;22.90;43.10;;;;;;5023061;28;20113;-42
2022/04/09 06:01:56;;;;;;;2.58;0.80;;;22.80;42.80;;;;;;5023006;28;20029;-43
2022/04/09 06:04:22;;;;;;;5.50;1.00;;;22.90;42.90;;;;;;5023289;28;20491;-44
2022/04/09 06:06:48;;;;;;;2.50;0.68;;;23.00;43.50;;;;;;5022687;28;20037;-43
2022/04/09 06:09:15;;;;;;;2.42;0.70;;;23.00;42.70;;;;;;5022022;28;20021;-44
2022/04/09 06:11:42;;;;;;;3.17;0.68;;;23.00;42.50;;;;;;5022090;28;20116;-44
2022/04/09 06:14:09;;;;;;;2.42;0.80;;;23.10;42.40;;;;;;5016375;28;20496;-43
2022/04/09 06:16:38;;;;;;;3.40;0.60;;;23.10;42.30;;;;;;5019828;28;20034;-44
2022/04/09 06:19:07;;;;;;;3.10;0.80;;;23.10;42.20;;;;;;5020858;28;20048;-43
2022/04/09 06:21:33;;;;;;;2.47;0.70;;;23.10;42.10;;;;;;5026024;28;20035;-43
2022/04/09 06:24:00;;;;;;;3.08;0.73;;;23.10;42.00;;;;;;5026659;28;20044;-43
2022/04/09 06:26:27;;;;;;;2.85;0.57;;;23.20;42.10;;;;;;5023137;28;20021;-41
2022/04/09 06:28:53;;;;;;;2.03;0.60;;;23.20;42.60;;;;;;5032902;28;20044;-41
2022/04/09 06:31:19;;;;;;;2.60;0.65;;;23.20;42.60;;;;;;5026421;28;20056;-41
2022/04/09 06:33:44;;;;;;;1.27;0.65;;;23.20;42.80;;;;;;5028318;28;20060;-42
2022/04/09 06:36:10;;;;;;;2.63;0.60;;;23.20;42.70;;;;;;5027579;28;20392;-42
2022/04/09 06:38:36;;;;;;;2.58;0.70;;;23.20;42.90;;;;;;5027472;28;20636;-41
2022/04/09 06:41:01;;;;;;;2.75;1.02;;;23.30;42.90;;;;;;5027867;28;20041;-43
2022/04/09 06:43:27;;;;;;;1.67;0.60;;;23.20;42.90;;;;;;5027226;28;20060;-40
2022/04/09 06:45:53;;;;;;;1.33;0.40;;;23.30;42.70;;;;;;5010089;28;20038;-42
2022/04/09 06:48:19;;;;;;;2.00;0.60;;;23.30;42.60;;;;;;5027851;28;20504;-45
2022/04/09 06:50:44;;;;;;;3.65;0.63;;;23.40;42.50;;;;;;5026846;28;20353;-44
2022/04/09 06:53:10;;;;;;;1.83;0.40;;;23.40;42.30;;;;;;5027179;28;20029;-46
2022/04/09 06:55:36;;;;;;;2.22;0.77;;;23.40;42.30;;;;;;5027283;28;20108;-47
2022/04/09 06:58:02;;;;;;;2.33;0.60;;;23.40;42.10;;;;;;5027576;28;20121;-42
2022/04/09 07:00:29;;;;;;;1.77;0.60;;;23.40;42.70;;;;;;5026505;28;20100;-43
2022/04/09 07:02:55;;;;;;;1.40;0.57;;;23.40;41.90;;;;;;5026785;28;20022;-42
2022/04/09 07:05:21;;;;;;;1.55;0.55;;;23.50;41.80;;;;;;5027224;28;20037;-42
2022/04/09 07:07:50;;;;;;;1.85;0.60;;;23.50;41.60;;;;;;5027326;28;20096;-41
2022/04/09 07:10:16;;;;;;;2.72;0.70;;;23.50;41.60;;;;;;5027235;28;20076;-42
2022/04/09 07:12:43;;;;;;;2.38;0.82;;;23.50;41.60;;;;;;5026485;28;20061;-42
2022/04/09 07:15:09;;;;;;;1.40;0.60;;;23.50;41.50;;;;;;5027215;28;20749;-42
2022/04/09 07:17:36;;;;;;;1.92;0.80;;;23.50;41.60;;;;;;5026873;28;20125;-41
2022/04/09 07:20:07;;;;;;;1.35;0.60;;;23.50;41.30;;;;;;5026792;28;20029;-44
2022/04/09 07:22:34;;;;;;;2.70;0.77;;;23.50;41.30;;;;;;5026698;28;20029;-43
2022/04/09 07:25:00;;;;;;;2.35;0.85;;;23.50;41.40;;;;;;5026676;28;20029;-45
2022/04/09 07:27:39;;;;;;;1.25;0.68;;;23.50;41.20;;;;;;5027483;28;20037;-43
2022/04/09 07:30:12;;;;;;;1.73;0.63;;;23.50;41.20;;;;;;5027184;28;20087;-44
2022/04/09 07:32:39;;;;;;;1.40;0.60;;;23.50;41.20;;;;;;5025129;28;20037;-46
2022/04/09 07:35:05;;;;;;;1.52;0.70;;;23.50;41.20;;;;;;5025158;28;20116;-44
2022/04/09 07:37:31;;;;;;;3.08;1.00;;;23.60;41.20;;;;;;5026631;28;20018;-41
2022/04/09 07:39:58;;;;;;;1.13;0.50;;;23.60;41.20;;;;;;5026500;28;20025;-42
2022/04/09 07:42:24;;;;;;;1.48;0.52;;;23.60;41.00;;;;;;5026236;28;20037;-43
2022/04/09 07:44:50;;;;;;;1.13;0.60;;;23.50;40.80;;;;;;5026553;28;20104;-45
2022/04/09 07:47:16;;;;;;;2.08;0.50;;;23.60;40.90;;;;;;5026027;28;20108;-44
2022/04/09 07:49:44;;;;;;;2.65;0.70;;;23.60;40.70;;;;;;5026664;28;20454;-44
2022/04/09 07:52:13;;;;;;;1.88;0.60;;;23.60;40.50;;;;;;5026293;28;20112;-41
2022/04/09 07:54:39;;;;;;;1.30;0.55;;;23.60;40.60;;;;;;5026152;28;20018;-41
2022/04/09 07:57:05;;;;;;;2.30;0.70;;;23.60;40.60;;;;;;5026731;28;20036;-41
2022/04/09 07:59:32;;;;;;;1.65;0.55;;;23.60;40.40;;;;;;5025192;28;20425;-42
2022/04/09 08:01:57;;;;;;;1.63;0.47;;;23.60;40.50;;;;;;5026199;28;20038;-41
2022/04/09 08:04:23;;;;;;;1.67;0.52;;;23.70;40.50;;;;;;5026255;28;20044;-42
2022/04/09 08:06:49;;;;;;;1.20;0.55;;;23.70;40.50;;;;;;5025904;28;20453;-43
2022/04/09 08:09:14;;;;;;;1.27;0.68;;;23.70;40.30;;;;;;5025994;28;20068;-42
2022/04/09 08:11:40;;;;;;;1.50;0.60;;;23.70;40.40;;;;;;5026038;28;20091;-43
2022/04/09 08:14:06;;;;;;;1.52;0.50;;;23.70;40.60;;;;;;5025663;28;20524;-43
2022/04/09 08:16:31;;;;;;;1.48;0.45;;;23.70;40.30;;;;;;5024150;28;20170;-42
2022/04/09 08:18:58;;;;;;;1.48;0.57;;;23.70;40.30;;;;;;5025950;28;20677;-42
2022/04/09 08:21:24;;;;;;;1.10;0.50;;;23.70;40.10;;;;;;5025433;28;20018;-42
2022/04/09 08:23:49;;;;;;;1.55;0.50;;;23.70;40.00;;;;;;5025719;28;20532;-42
2022/04/09 08:26:15;;;;;;;1.50;0.60;;;23.70;39.90;;;;;;5024104;28;20508;-43
2022/04/09 08:28:41;;;;;;;1.00;0.50;;;23.70;39.70;;;;;;5023609;28;20033;-43
2022/04/09 08:31:07;;;;;;;1.60;0.50;;;23.80;39.50;;;;;;5024545;28;20030;-43
2022/04/09 08:33:33;;;;;;;2.63;1.00;;;23.80;39.40;;;;;;5022508;28;20034;-43
2022/04/09 08:36:02;;;;;;;3.63;1.60;;;23.80;39.70;;;;;;5008514;28;20378;-44
2022/04/09 08:38:28;;;;;;;3.80;1.05;;;23.80;39.80;;;;;;5008672;28;20048;-43
2022/04/09 08:40:54;;;;;;;2.53;1.08;;;23.80;39.80;;;;;;5025399;28;20489;-43
2022/04/09 08:43:21;;;;;;;2.40;0.75;;;23.80;39.90;;;;;;5023568;28;20044;-40
2022/04/09 08:45:48;;;;;;;2.22;0.80;;;23.80;39.80;;;;;;5023692;28;20157;-40
2022/04/09 08:48:14;;;;;;;1.92;0.70;;;23.80;39.70;;;;;;5024652;28;20036;-43
2022/04/09 08:50:43;;;;;;;2.88;1.00;;;23.80;39.60;;;;;;5024472;28;20045;-44
2022/04/09 08:53:10;;;;;;;3.90;1.00;;;23.80;39.70;;;;;;5024418;28;20036;-44
2022/04/09 08:55:40;;;;;;;2.53;1.02;;;23.80;39.80;;;;;;5024685;28;20025;-43
2022/04/09 08:58:06;;;;;;;2.15;0.60;;;23.90;39.90;;;;;;5025133;28;20029;-43
2022/04/09 09:00:33;;;;;;;1.17;0.60;;;23.90;39.70;;;;;;5024783;28;20037;-44
2022/04/09 09:03:01;;;;;;;2.70;0.98;;;23.90;39.70;;;;;;5024207;28;20280;-42
2022/04/09 09:05:39;;;;;;;2.58;0.80;;;23.90;39.80;;;;;;5024829;28;20056;-44
2022/04/09 09:08:07;;;;;;;2.00;0.68;;;23.90;39.80;;;;;;5025178;28;20025;-44
2022/04/09 09:10:37;;;;;;;3.00;0.85;;;23.90;39.80;;;;;;5024552;28;20123;-46
2022/04/09 09:13:08;;;;;;;3.08;0.88;;;23.90;39.80;;;;;;5023634;28;20506;-45
2022/04/09 09:15:53;;;;;;;2.92;1.08;;;23.90;39.80;;;;;;5024359;28;20060;-45
2022/04/09 09:18:26;;;;;;;2.78;0.88;;;23.90;39.70;;;;;;5022132;28;20026;-44
2022/04/09 09:20:57;;;;;;;3.30;1.08;;;24.00;39.80;;;;;;5016303;28;20095;-43
2022/04/09 09:23:31;;;;;;;3.25;0.80;;;23.90;40.10;;;;;;5012449;28;20038;-46
2022/04/09 09:25:59;;;;;;;3.47;1.00;;;23.90;40.90;;;;;;5020075;28;20029;-52
2022/04/09 09:28:27;;;;;;;3.83;0.85;;;23.90;40.50;;;;;;5019302;28;20025;-46
2022/04/09 09:30:53;;;;;;;2.75;0.98;;;23.90;40.40;;;;;;5019116;28;20743;-48
2022/04/09 09:33:20;;;;;;;5.60;1.10;;;24.00;40.10;;;;;;5022318;28;20785;-44
2022/04/09 09:36:01;;;;;;;3.42;1.00;;;24.00;40.00;;;;;;5023308;28;20100;-44
2022/04/09 09:38:34;;;;;;;5.35;1.00;;;24.00;40.10;;;;;;5023981;28;20243;-43
2022/04/09 09:41:03;;;;;;;2.70;1.23;;;24.00;40.40;;;;;;5023780;28;20105;-46
2022/04/09 09:43:29;;;;;;;3.13;1.00;;;24.00;39.40;;;;;;5023726;28;20037;-45
2022/04/09 09:45:55;;;;;;;3.15;1.00;;;24.00;39.40;;;;;;5023336;28;20033;-46
2022/04/09 09:48:28;;;;;;;2.28;0.70;;;24.00;38.80;;;;;;5022842;28;20075;-48
2022/04/09 09:50:57;;;;;;;2.65;0.80;;;24.00;38.80;;;;;;5023919;28;20619;-46
2022/04/09 09:53:31;;;;;;;4.00;0.88;;;24.00;39.20;;;;;;5023122;28;20080;-48
2022/04/09 09:55:59;;;;;;;1.92;0.70;;;24.00;38.90;;;;;;5025655;28;20018;-46
2022/04/09 09:58:26;;;;;;;1.67;0.57;;;24.00;38.80;;;;;;5024785;28;20022;-47
2022/04/09 10:00:56;;;;;;;2.28;0.85;;;24.00;38.40;;;;;;5026920;28;20083;-46
2022/04/09 10:03:23;;;;;;;2.88;0.80;;;24.00;38.40;;;;;;5027182;28;20655;-46
2022/04/09 10:05:52;;;;;;;1.55;0.60;;;23.90;38.10;;;;;;5026906;28;20084;-46
2022/04/09 10:08:19;;;;;;;2.90;0.70;;;23.90;38.20;;;;;;5027152;28;20045;-47
2022/04/09 10:10:48;;;;;;;2.08;0.80;;;23.90;38.10;;;;;;5027265;28;20025;-43
2022/04/09 10:13:24;;;;;;;2.67;0.90;;;23.90;37.80;;;;;;5026849;28;20541;-44
2022/04/09 10:15:52;;;;;;;2.45;0.80;;;23.90;37.90;;;;;;5024004;28;20057;-45
2022/04/09 10:18:23;;;;;;;1.77;0.90;;;23.90;38.00;;;;;;5019302;28;20026;-46
2022/04/09 10:21:08;;;;;;;1.52;0.77;;;23.90;38.30;;;;;;5026153;28;20028;-47
2022/04/09 10:23:35;;;;;;;1.35;0.52;;;23.90;38.60;;;;;;5025244;28;20029;-49
2022/04/09 10:26:02;;;;;;;1.75;0.65;;;23.90;38.80;;;;;;5026465;28;20028;-46
2022/04/09 10:28:36;;;;;;;1.92;0.70;;;23.90;39.00;;;;;;5026634;28;20036;-45
2022/04/09 10:31:22;;;;;;;2.10;0.73;;;23.90;39.30;;;;;;5026775;28;20025;-46
2022/04/09 10:33:58;;;;;;;1.92;0.60;;;24.00;39.40;;;;;;5026226;28;20037;-46
2022/04/09 10:36:45;;;;;;;1.40;0.60;;;24.00;39.40;;;;;;5026518;28;20017;-46
2022/04/09 10:39:49;;;;;;;1.50;0.65;;;24.00;39.40;;;;;;5026243;28;20086;-47
2022/04/09 10:42:50;;;;;;;2.47;1.02;;;24.00;40.00;;;;;;5026511;28;20039;-44
2022/04/09 10:45:16;;;;;;;2.05;0.50;;;24.00;39.40;;;;;;5026015;28;20150;-44
2022/04/09 10:48:10;;;;;;;2.10;0.63;;;24.00;39.40;;;;;;5025484;28;20021;-45
2022/04/09 10:50:56;;;;;;;1.67;0.85;;;24.00;39.50;;;;;;5029199;28;20080;-46
2022/04/09 10:53:24;;;;;;;1.45;0.70;;;24.00;39.80;;;;;;5025462;28;20108;-45
2022/04/09 10:56:25;;;;;;;2.08;0.40;;;24.00;39.90;;;;;;5018683;28;20556;-46
2022/04/09 10:59:09;;;;;;;1.73;0.50;;;24.00;40.00;;;;;;5024874;28;20022;-46
2022/04/09 11:01:47;;;;;;;1.17;0.60;;;24.00;40.00;;;;;;5024992;28;20025;-48
2022/04/09 11:04:36;;;;;;;3.70;0.82;;;24.00;40.00;;;;;;5025981;28;20080;-47
2022/04/09 11:07:08;;;;;;;1.63;0.65;;;24.10;40.00;;;;;;5025463;28;20032;-46
2022/04/09 11:09:42;;;;;;;1.92;0.90;;;24.00;40.00;;;;;;5026225;28;20022;-47
2022/04/09 11:12:09;;;;;;;1.48;0.60;;;24.10;39.90;;;;;;5025131;28;20581;-47
2022/04/09 11:14:48;;;;;;;2.38;0.90;;;24.10;39.90;;;;;;5025142;28;20082;-45
2022/04/09 11:17:23;;;;;;;2.30;0.70;;;24.10;39.80;;;;;;4993781;28;20179;-48
2022/04/09 11:19:49;;;;;;;2.30;0.93;;;24.10;39.70;;;;;;5026405;28;20057;-45
2022/04/09 11:22:15;;;;;;;2.40;0.90;;;24.00;39.60;;;;;;5024962;28;20727;-46
2022/04/09 11:24:41;;;;;;;1.90;0.70;;;24.00;39.60;;;;;;5025138;28;20033;-43
2022/04/09 11:27:07;;;;;;;3.60;0.70;;;24.10;39.70;;;;;;5024915;28;20037;-45
2022/04/09 11:29:34;;;;;;;2.38;0.80;;;24.10;39.80;;;;;;5024974;28;20469;-46
2022/04/09 11:32:00;;;;;;;7.78;0.90;;;24.10;39.50;;;;;;5025523;28;20090;-44
2022/04/09 11:34:26;;;;;;;1.85;0.60;;;24.10;39.40;;;;;;5026192;28;20475;-44
2022/04/09 11:37:09;;;;;;;2.15;0.60;;;24.00;39.40;;;;;;5025859;28;20660;-45
2022/04/09 11:39:40;;;;;;;1.58;0.65;;;24.00;39.40;;;;;;5024730;28;20024;-47
2022/04/09 11:42:07;;;;;;;2.33;0.70;;;24.10;39.60;;;;;;5026055;28;20025;-46
2022/04/09 11:44:33;;;;;;;1.50;0.68;;;24.00;39.50;;;;;;5025831;28;20105;-44
2022/04/09 11:47:16;;;;;;;1.85;0.70;;;24.00;39.70;;;;;;5025589;28;20113;-46
2022/04/09 11:49:47;;;;;;;1.20;0.57;;;24.00;39.60;;;;;;5025614;28;20417;-42
2022/04/09 11:52:32;;;;;;;1.88;0.63;;;24.00;39.80;;;;;;5025464;28;20056;-44
2022/04/09 11:55:01;;;;;;;1.58;0.60;;;24.00;39.70;;;;;;5025621;28;20512;-48
2022/04/09 11:57:27;;;;;;;2.17;0.70;;;24.00;39.60;;;;;;5005539;28;20652;-41
2022/04/09 11:59:54;;;;;;;2.30;0.70;;;24.00;39.50;;;;;;5005305;28;20022;-44
2022/04/09 12:02:22;;;;;;;2.08;0.55;;;24.00;39.20;;;;;;5009868;28;20059;-42
2022/04/09 12:04:48;;;;;;;2.25;0.60;;;24.10;39.40;;;;;;5024555;28;20029;-48
2022/04/09 12:07:15;;;;;;;1.50;0.70;;;24.00;39.60;;;;;;5025288;28;20025;-45
2022/04/09 12:09:41;;;;;;;2.22;0.80;;;24.10;39.80;;;;;;5024938;28;20363;-45
2022/04/09 12:12:08;;;;;;;2.75;1.17;;;24.10;39.80;;;;;;5025080;28;20037;-45
2022/04/09 12:14:34;;;;;;;1.35;0.55;;;24.10;40.00;;;;;;5024808;28;20026;-45
2022/04/09 12:17:14;;;;;;;1.98;0.65;;;24.10;39.90;;;;;;5025401;28;20171;-46
2022/04/09 12:19:43;;;;;;;3.03;0.80;;;24.10;40.00;;;;;;5022889;28;20025;-44
2022/04/09 12:22:22;;;;;;;1.83;0.63;;;24.10;40.00;;;;;;5024265;28;20029;-45
2022/04/09 12:24:57;;;;;;;2.28;0.70;;;24.10;40.00;;;;;;5023411;28;20030;-45
2022/04/09 12:27:43;;;;;;;1.25;0.50;;;24.10;40.00;;;;;;5024890;28;20043;-45
2022/04/09 12:30:09;;;;;;;0.73;0.40;;;24.10;39.80;;;;;;5024910;28;20112;-45
2022/04/09 12:32:35;;;;;;;2.42;0.63;;;24.10;39.60;;;;;;5024022;28;20033;-46
2022/04/09 12:35:07;;;;;;;1.80;0.68;;;24.10;39.60;;;;;;5025083;28;20017;-45
2022/04/09 12:37:46;;;;;;;1.65;0.40;;;24.10;39.50;;;;;;5024504;28;20083;-46
2022/04/09 12:40:17;;;;;;;1.98;0.47;;;24.10;39.80;;;;;;5024498;28;20030;-44
2022/04/09 12:42:43;;;;;;;1.58;0.68;;;24.10;39.80;;;;;;5023935;28;20033;-46
2022/04/09 12:45:10;;;;;;;1.52;0.60;;;24.10;40.00;;;;;;5024443;28;20041;-45
2022/04/09 12:47:36;;;;;;;2.25;0.77;;;24.10;40.00;;;;;;5024431;28;20092;-46
2022/04/09 12:50:02;;;;;;;1.67;0.80;;;24.10;40.00;;;;;;5024679;28;20041;-46
2022/04/09 12:52:30;;;;;;;1.52;0.40;;;24.10;40.10;;;;;;5024742;28;20037;-46